Skip Navigation Links
NOAA logo - Click to go to the NOAA homepage
NOAA's National Weather Service
Alaska Aviation Weather Unit
  NWS logo - Click to go to the NWS homepage
Left Navbar Graphic     21 AKDT = 05 GMT

   
NOAA is celebrating 200 years of science, service, and stewardship. Visit the NOAA 200th celebration Web site to learn more.
USA.gov is the U.S. Government's official Web portal to all Federal, state and local government Web resources and services.
Facebook
NWS on Facebook

AAWU Home :: Display TAF Add Bookmark
TAF PAMC 262320Z 2700/2724 VRB04KT P6SM -SHRA BKN070 OVC090
     FM270300 03004KT P6SM VCSH BKN040 OVC090=
METAR PAMC 262353Z AUTO 00000KT 10SM -RA BKN047 OVC080 11/02 A2952 RMK
     RAE25B48 SLP003 P0004 60004 T01060022 10122 20022 56007 TSNO
     VIA AUTODIAL=

METAR PAMC 270053Z AUTO 00000KT 10SM OVC090 12/01 A2952 RMK AO2 RAE2358
     SLP000 P0000 T01170006 TSNO=

METAR PAMC 270153Z AUTO 06005KT 10SM FEW055 OVC100 11/01 A2951 RMK AO2
     SLP999 T01110006 TSNO=

METAR PAMC 270253Z AUTO 35006KT 10SM FEW042 BKN070 OVC085 09/02 A2952
     RMK AO2 RAB25E46 SLP001 P0000 60000 T00890022 55002 TSNO=

METAR PAMC 270353Z AUTO 35005KT 10SM FEW060 BKN070 OVC090 09/02 A2952
     RMK AO2 SLP002 T00940017 TSNO=

METAR PAMC 270453Z AUTO 26005KT 10SM BKN060 OVC080 09/02 A2955 RMK AO2
     SLP010 T00890022 TSNO=


NOAA's National Weather Service
Alaska Aviation Weather Unit
6930 Sand Lake Road
Anchorage, AK 99502-1845
Disclaimer
Credits
Glossary
Privacy Policy
About Us
Career Opportunities
Contact AAWU Internet Services Site last modified: April, 17th 2012